Аэропорт: Ровно. Ровно

ICAO: UKLR

METAR:
2020-10-23 11:00:00
UKLR 231100Z 27005MPS CAVOK 16/09 Q1016 R29/090070 NOSIG
METAR:
2020-10-23 08:05:00
TAF UKLR 230805Z 2309/2318 25005MPS 9999 BKN015 SCT020CB